sensor_id;sensor_type;location;lat;lon;timestamp;P1;durP1;ratioP1;P2;durP2;ratioP2
32505;SDS011;18955;51.224;8.482;2022-10-12T00:00:57;3.63;;;1.33;;
32505;SDS011;18955;51.224;8.482;2022-10-12T00:03:23;4.55;;;1.85;;
32505;SDS011;18955;51.224;8.482;2022-10-12T00:08:49;6.00;;;2.08;;
32505;SDS011;18955;51.224;8.482;2022-10-12T00:11:21;6.40;;;2.05;;
32505;SDS011;18955;51.224;8.482;2022-10-12T00:13:52;7.65;;;1.63;;
32505;SDS011;18955;51.224;8.482;2022-10-12T00:16:19;5.10;;;1.70;;
32505;SDS011;18955;51.224;8.482;2022-10-12T00:18:53;7.15;;;2.63;;
32505;SDS011;18955;51.224;8.482;2022-10-12T00:21:21;6.85;;;1.70;;
32505;SDS011;18955;51.224;8.482;2022-10-12T00:23:49;7.35;;;1.55;;
32505;SDS011;18955;51.224;8.482;2022-10-12T00:26:16;5.50;;;1.70;;
32505;SDS011;18955;51.224;8.482;2022-10-12T00:28:45;5.28;;;1.63;;
32505;SDS011;18955;51.224;8.482;2022-10-12T00:31:13;4.85;;;1.65;;
32505;SDS011;18955;51.224;8.482;2022-10-12T00:33:41;9.23;;;3.15;;
32505;SDS011;18955;51.224;8.482;2022-10-12T00:38:37;4.82;;;1.42;;
32505;SDS011;18955;51.224;8.482;2022-10-12T00:41:03;5.03;;;1.50;;
32505;SDS011;18955;51.224;8.482;2022-10-12T00:43:34;5.72;;;1.70;;
32505;SDS011;18955;51.224;8.482;2022-10-12T00:46:17;9.30;;;1.88;;
32505;SDS011;18955;51.224;8.482;2022-10-12T00:48:43;5.05;;;1.70;;
32505;SDS011;18955;51.224;8.482;2022-10-12T00:51:12;11.38;;;1.95;;
32505;SDS011;18955;51.224;8.482;2022-10-12T00:53:42;7.35;;;1.65;;
32505;SDS011;18955;51.224;8.482;2022-10-12T00:56:15;4.05;;;1.58;;
32505;SDS011;18955;51.224;8.482;2022-10-12T00:58:46;10.48;;;1.70;;
32505;SDS011;18955;51.224;8.482;2022-10-12T01:01:14;5.00;;;1.73;;
32505;SDS011;18955;51.224;8.482;2022-10-12T01:03:41;5.10;;;1.60;;
32505;SDS011;18955;51.224;8.482;2022-10-12T01:06:07;6.53;;;1.48;;
32505;SDS011;18955;51.224;8.482;2022-10-12T01:08:34;6.78;;;1.92;;
32505;SDS011;18955;51.224;8.482;2022-10-12T01:11:01;9.90;;;1.60;;
32505;SDS011;18955;51.224;8.482;2022-10-12T01:13:27;9.05;;;2.10;;
32505;SDS011;18955;51.224;8.482;2022-10-12T01:16:17;6.13;;;1.73;;
32505;SDS011;18955;51.224;8.482;2022-10-12T01:19:05;7.40;;;2.28;;
32505;SDS011;18955;51.224;8.482;2022-10-12T01:21:55;6.88;;;1.73;;
32505;SDS011;18955;51.224;8.482;2022-10-12T01:30:15;7.55;;;1.70;;
32505;SDS011;18955;51.224;8.482;2022-10-12T01:36:05;7.22;;;1.45;;
32505;SDS011;18955;51.224;8.482;2022-10-12T01:41:37;5.57;;;1.38;;
32505;SDS011;18955;51.224;8.482;2022-10-12T01:44:25;6.68;;;1.45;;
32505;SDS011;18955;51.224;8.482;2022-10-12T01:46:52;4.13;;;1.70;;
32505;SDS011;18955;51.224;8.482;2022-10-12T01:49:20;4.45;;;1.30;;
32505;SDS011;18955;51.224;8.482;2022-10-12T01:57:45;3.53;;;1.40;;
32505;SDS011;18955;51.224;8.482;2022-10-12T02:00:18;8.77;;;1.67;;
32505;SDS011;18955;51.224;8.482;2022-10-12T02:13:33;9.45;;;1.50;;
32505;SDS011;18955;51.224;8.482;2022-10-12T02:16:03;7.80;;;1.70;;
32505;SDS011;18955;51.224;8.482;2022-10-12T02:18:34;3.70;;;1.30;;
32505;SDS011;18955;51.224;8.482;2022-10-12T02:21:04;3.58;;;1.30;;
32505;SDS011;18955;51.224;8.482;2022-10-12T02:23:32;6.35;;;1.40;;
32505;SDS011;18955;51.224;8.482;2022-10-12T02:25:59;4.63;;;1.45;;
32505;SDS011;18955;51.224;8.482;2022-10-12T02:28:27;9.68;;;1.33;;
32505;SDS011;18955;51.224;8.482;2022-10-12T02:30:59;5.43;;;1.30;;
32505;SDS011;18955;51.224;8.482;2022-10-12T02:36:04;5.57;;;1.30;;
32505;SDS011;18955;51.224;8.482;2022-10-12T02:38:44;5.68;;;1.30;;
32505;SDS011;18955;51.224;8.482;2022-10-12T02:41:16;3.08;;;1.15;;
32505;SDS011;18955;51.224;8.482;2022-10-12T02:43:58;4.78;;;1.48;;
32505;SDS011;18955;51.224;8.482;2022-10-12T02:46:26;4.93;;;1.45;;
32505;SDS011;18955;51.224;8.482;2022-10-12T02:48:54;5.00;;;1.70;;
32505;SDS011;18955;51.224;8.482;2022-10-12T02:51:23;6.47;;;1.55;;
32505;SDS011;18955;51.224;8.482;2022-10-12T02:53:53;6.95;;;1.40;;
32505;SDS011;18955;51.224;8.482;2022-10-12T02:56:21;6.18;;;1.48;;
32505;SDS011;18955;51.224;8.482;2022-10-12T03:01:14;7.38;;;1.55;;
32505;SDS011;18955;51.224;8.482;2022-10-12T03:03:41;6.03;;;1.52;;
32505;SDS011;18955;51.224;8.482;2022-10-12T03:06:08;6.00;;;1.60;;
32505;SDS011;18955;51.224;8.482;2022-10-12T03:08:34;6.13;;;1.23;;
32505;SDS011;18955;51.224;8.482;2022-10-12T03:11:01;5.15;;;1.48;;
32505;SDS011;18955;51.224;8.482;2022-10-12T03:13:28;5.38;;;1.60;;
32505;SDS011;18955;51.224;8.482;2022-10-12T03:16:04;3.63;;;1.27;;
32505;SDS011;18955;51.224;8.482;2022-10-12T03:18:32;7.38;;;1.52;;
32505;SDS011;18955;51.224;8.482;2022-10-12T03:23:25;8.70;;;1.50;;
32505;SDS011;18955;51.224;8.482;2022-10-12T03:25:51;3.83;;;0.93;;
32505;SDS011;18955;51.224;8.482;2022-10-12T03:28:18;6.82;;;1.35;;
32505;SDS011;18955;51.224;8.482;2022-10-12T03:30:45;2.78;;;1.48;;
32505;SDS011;18955;51.224;8.482;2022-10-12T03:33:11;3.95;;;1.20;;
32505;SDS011;18955;51.224;8.482;2022-10-12T03:35:38;4.82;;;1.65;;
32505;SDS011;18955;51.224;8.482;2022-10-12T03:38:07;12.23;;;1.50;;
32505;SDS011;18955;51.224;8.482;2022-10-12T03:40:34;5.78;;;1.50;;
32505;SDS011;18955;51.224;8.482;2022-10-12T03:43:00;1.90;;;1.23;;
32505;SDS011;18955;51.224;8.482;2022-10-12T03:45:26;3.20;;;1.40;;
32505;SDS011;18955;51.224;8.482;2022-10-12T03:47:53;6.38;;;1.33;;
32505;SDS011;18955;51.224;8.482;2022-10-12T03:50:19;6.60;;;1.25;;
32505;SDS011;18955;51.224;8.482;2022-10-12T03:52:45;4.63;;;1.40;;
32505;SDS011;18955;51.224;8.482;2022-10-12T03:55:12;2.30;;;1.08;;
32505;SDS011;18955;51.224;8.482;2022-10-12T03:57:38;3.13;;;1.30;;
32505;SDS011;18955;51.224;8.482;2022-10-12T04:00:05;10.10;;;1.65;;
32505;SDS011;18955;51.224;8.482;2022-10-12T04:02:37;5.50;;;1.48;;
32505;SDS011;18955;51.224;8.482;2022-10-12T04:05:04;16.50;;;2.35;;
32505;SDS011;18955;51.224;8.482;2022-10-12T04:07:30;32.10;;;2.25;;
32505;SDS011;18955;51.224;8.482;2022-10-12T04:09:57;17.85;;;1.92;;
32505;SDS011;18955;51.224;8.482;2022-10-12T04:12:23;4.57;;;1.58;;
32505;SDS011;18955;51.224;8.482;2022-10-12T04:14:49;19.38;;;2.17;;
32505;SDS011;18955;51.224;8.482;2022-10-12T04:17:16;20.38;;;2.00;;
32505;SDS011;18955;51.224;8.482;2022-10-12T04:19:43;40.33;;;5.65;;
32505;SDS011;18955;51.224;8.482;2022-10-12T04:24:35;16.85;;;2.42;;
32505;SDS011;18955;51.224;8.482;2022-10-12T04:27:02;15.05;;;1.80;;
32505;SDS011;18955;51.224;8.482;2022-10-12T04:29:28;9.48;;;2.10;;
32505;SDS011;18955;51.224;8.482;2022-10-12T04:31:54;15.00;;;2.10;;
32505;SDS011;18955;51.224;8.482;2022-10-12T04:34:21;23.05;;;2.83;;
32505;SDS011;18955;51.224;8.482;2022-10-12T04:36:47;25.45;;;2.85;;
32505;SDS011;18955;51.224;8.482;2022-10-12T04:39:13;21.33;;;2.83;;
32505;SDS011;18955;51.224;8.482;2022-10-12T04:41:39;17.55;;;3.25;;
32505;SDS011;18955;51.224;8.482;2022-10-12T04:44:05;28.17;;;5.78;;
32505;SDS011;18955;51.224;8.482;2022-10-12T04:46:33;32.00;;;6.82;;
32505;SDS011;18955;51.224;8.482;2022-10-12T04:48:59;30.67;;;4.68;;
32505;SDS011;18955;51.224;8.482;2022-10-12T04:51:26;43.63;;;6.50;;
32505;SDS011;18955;51.224;8.482;2022-10-12T04:53:52;16.58;;;3.05;;
32505;SDS011;18955;51.224;8.482;2022-10-12T04:56:18;20.23;;;3.33;;
32505;SDS011;18955;51.224;8.482;2022-10-12T04:58:44;21.23;;;4.63;;
32505;SDS011;18955;51.224;8.482;2022-10-12T05:01:11;24.40;;;3.58;;
32505;SDS011;18955;51.224;8.482;2022-10-12T05:03:37;17.08;;;3.47;;
32505;SDS011;18955;51.224;8.482;2022-10-12T05:06:03;15.52;;;2.88;;
32505;SDS011;18955;51.224;8.482;2022-10-12T05:08:30;20.73;;;3.08;;
32505;SDS011;18955;51.224;8.482;2022-10-12T05:10:56;20.95;;;3.20;;
32505;SDS011;18955;51.224;8.482;2022-10-12T05:13:24;36.55;;;3.90;;
32505;SDS011;18955;51.224;8.482;2022-10-12T05:15:51;21.50;;;3.13;;
32505;SDS011;18955;51.224;8.482;2022-10-12T05:18:17;23.10;;;4.05;;
32505;SDS011;18955;51.224;8.482;2022-10-12T05:20:44;16.52;;;3.58;;
32505;SDS011;18955;51.224;8.482;2022-10-12T05:23:10;22.75;;;3.13;;
32505;SDS011;18955;51.224;8.482;2022-10-12T05:25:36;13.77;;;2.35;;
32505;SDS011;18955;51.224;8.482;2022-10-12T05:28:03;26.88;;;2.65;;
32505;SDS011;18955;51.224;8.482;2022-10-12T05:30:29;23.45;;;2.30;;
32505;SDS011;18955;51.224;8.482;2022-10-12T05:32:55;19.52;;;2.28;;
32505;SDS011;18955;51.224;8.482;2022-10-12T05:35:21;20.90;;;2.45;;
32505;SDS011;18955;51.224;8.482;2022-10-12T05:37:48;13.90;;;1.92;;
32505;SDS011;18955;51.224;8.482;2022-10-12T05:40:14;13.02;;;1.77;;
32505;SDS011;18955;51.224;8.482;2022-10-12T05:42:40;23.30;;;2.97;;
32505;SDS011;18955;51.224;8.482;2022-10-12T05:45:09;24.17;;;2.67;;
32505;SDS011;18955;51.224;8.482;2022-10-12T05:47:36;17.40;;;2.08;;
32505;SDS011;18955;51.224;8.482;2022-10-12T05:50:02;19.90;;;2.25;;
32505;SDS011;18955;51.224;8.482;2022-10-12T05:52:28;8.38;;;1.70;;
32505;SDS011;18955;51.224;8.482;2022-10-12T05:54:55;8.30;;;1.60;;
32505;SDS011;18955;51.224;8.482;2022-10-12T05:57:21;9.52;;;1.98;;
32505;SDS011;18955;51.224;8.482;2022-10-12T05:59:47;8.57;;;1.73;;
32505;SDS011;18955;51.224;8.482;2022-10-12T06:02:14;5.32;;;1.52;;
32505;SDS011;18955;51.224;8.482;2022-10-12T06:04:41;4.20;;;1.50;;
32505;SDS011;18955;51.224;8.482;2022-10-12T06:07:08;9.75;;;1.50;;
32505;SDS011;18955;51.224;8.482;2022-10-12T06:09:34;10.70;;;1.85;;
32505;SDS011;18955;51.224;8.482;2022-10-12T06:12:04;13.43;;;1.85;;
32505;SDS011;18955;51.224;8.482;2022-10-12T06:14:31;7.82;;;1.70;;
32505;SDS011;18955;51.224;8.482;2022-10-12T06:16:57;9.32;;;1.88;;
32505;SDS011;18955;51.224;8.482;2022-10-12T06:19:23;7.60;;;1.90;;
32505;SDS011;18955;51.224;8.482;2022-10-12T06:21:49;10.45;;;2.05;;
32505;SDS011;18955;51.224;8.482;2022-10-12T06:24:15;19.10;;;2.30;;
32505;SDS011;18955;51.224;8.482;2022-10-12T06:26:42;12.13;;;1.83;;
32505;SDS011;18955;51.224;8.482;2022-10-12T06:29:08;10.38;;;2.33;;
32505;SDS011;18955;51.224;8.482;2022-10-12T06:31:34;22.40;;;4.32;;
32505;SDS011;18955;51.224;8.482;2022-10-12T06:34:02;14.88;;;3.00;;
32505;SDS011;18955;51.224;8.482;2022-10-12T06:36:28;11.38;;;2.60;;
32505;SDS011;18955;51.224;8.482;2022-10-12T06:38:54;8.80;;;2.05;;
32505;SDS011;18955;51.224;8.482;2022-10-12T06:41:21;8.10;;;2.80;;
32505;SDS011;18955;51.224;8.482;2022-10-12T06:43:47;12.20;;;2.72;;
32505;SDS011;18955;51.224;8.482;2022-10-12T06:46:13;9.85;;;2.30;;
32505;SDS011;18955;51.224;8.482;2022-10-12T06:48:39;17.60;;;2.42;;
32505;SDS011;18955;51.224;8.482;2022-10-12T06:51:05;9.30;;;2.03;;
32505;SDS011;18955;51.224;8.482;2022-10-12T06:53:32;15.25;;;1.77;;
32505;SDS011;18955;51.224;8.482;2022-10-12T06:56:04;9.30;;;2.35;;
32505;SDS011;18955;51.224;8.482;2022-10-12T06:58:34;13.60;;;2.42;;
32505;SDS011;18955;51.224;8.482;2022-10-12T07:01:01;16.92;;;2.35;;
32505;SDS011;18955;51.224;8.482;2022-10-12T07:03:28;13.80;;;2.30;;
32505;SDS011;18955;51.224;8.482;2022-10-12T07:05:55;13.95;;;2.20;;
32505;SDS011;18955;51.224;8.482;2022-10-12T07:08:29;14.10;;;2.75;;
32505;SDS011;18955;51.224;8.482;2022-10-12T07:11:02;11.43;;;2.17;;
32505;SDS011;18955;51.224;8.482;2022-10-12T07:13:28;23.73;;;2.38;;
32505;SDS011;18955;51.224;8.482;2022-10-12T07:15:56;9.73;;;2.50;;
32505;SDS011;18955;51.224;8.482;2022-10-12T07:18:22;7.18;;;2.25;;
32505;SDS011;18955;51.224;8.482;2022-10-12T07:20:48;21.63;;;2.88;;
32505;SDS011;18955;51.224;8.482;2022-10-12T07:23:15;6.50;;;2.20;;
32505;SDS011;18955;51.224;8.482;2022-10-12T07:25:48;15.88;;;2.10;;
32505;SDS011;18955;51.224;8.482;2022-10-12T07:28:15;25.73;;;2.80;;
32505;SDS011;18955;51.224;8.482;2022-10-12T07:30:42;12.68;;;3.42;;
32505;SDS011;18955;51.224;8.482;2022-10-12T07:33:09;14.13;;;2.33;;
32505;SDS011;18955;51.224;8.482;2022-10-12T07:35:35;13.68;;;2.40;;
32505;SDS011;18955;51.224;8.482;2022-10-12T07:38:01;15.65;;;2.72;;
32505;SDS011;18955;51.224;8.482;2022-10-12T07:40:28;12.20;;;2.30;;
32505;SDS011;18955;51.224;8.482;2022-10-12T07:42:55;17.63;;;2.42;;
32505;SDS011;18955;51.224;8.482;2022-10-12T07:45:22;16.75;;;2.65;;
32505;SDS011;18955;51.224;8.482;2022-10-12T07:47:48;11.43;;;2.20;;
32505;SDS011;18955;51.224;8.482;2022-10-12T07:50:14;13.05;;;1.92;;
32505;SDS011;18955;51.224;8.482;2022-10-12T07:52:40;12.63;;;2.72;;
32505;SDS011;18955;51.224;8.482;2022-10-12T07:55:07;10.90;;;2.92;;
32505;SDS011;18955;51.224;8.482;2022-10-12T07:57:33;37.03;;;3.85;;
32505;SDS011;18955;51.224;8.482;2022-10-12T08:00:00;14.80;;;3.40;;
32505;SDS011;18955;51.224;8.482;2022-10-12T08:02:26;16.70;;;3.38;;
32505;SDS011;18955;51.224;8.482;2022-10-12T08:04:52;24.48;;;3.83;;
32505;SDS011;18955;51.224;8.482;2022-10-12T08:07:18;34.05;;;3.88;;
32505;SDS011;18955;51.224;8.482;2022-10-12T08:09:46;31.35;;;4.25;;
32505;SDS011;18955;51.224;8.482;2022-10-12T08:12:14;35.60;;;5.20;;
32505;SDS011;18955;51.224;8.482;2022-10-12T08:14:40;37.55;;;4.88;;
32505;SDS011;18955;51.224;8.482;2022-10-12T08:17:06;22.05;;;3.17;;
32505;SDS011;18955;51.224;8.482;2022-10-12T08:19:34;27.27;;;4.78;;
32505;SDS011;18955;51.224;8.482;2022-10-12T08:22:00;32.42;;;5.45;;
32505;SDS011;18955;51.224;8.482;2022-10-12T08:24:27;37.47;;;5.60;;
32505;SDS011;18955;51.224;8.482;2022-10-12T08:26:53;23.52;;;3.80;;
32505;SDS011;18955;51.224;8.482;2022-10-12T08:29:19;35.00;;;6.47;;
32505;SDS011;18955;51.224;8.482;2022-10-12T08:31:45;25.85;;;5.72;;
32505;SDS011;18955;51.224;8.482;2022-10-12T08:34:15;34.35;;;4.85;;
32505;SDS011;18955;51.224;8.482;2022-10-12T08:36:41;31.50;;;4.93;;
32505;SDS011;18955;51.224;8.482;2022-10-12T08:39:07;27.55;;;5.05;;
32505;SDS011;18955;51.224;8.482;2022-10-12T08:49:45;26.05;;;5.10;;
32505;SDS011;18955;51.224;8.482;2022-10-12T08:54:54;39.22;;;4.57;;
32505;SDS011;18955;51.224;8.482;2022-10-12T08:57:28;16.25;;;3.90;;
32505;SDS011;18955;51.224;8.482;2022-10-12T08:59:54;17.17;;;2.90;;
32505;SDS011;18955;51.224;8.482;2022-10-12T09:02:24;13.02;;;3.35;;
32505;SDS011;18955;51.224;8.482;2022-10-12T09:05:21;25.95;;;5.13;;
32505;SDS011;18955;51.224;8.482;2022-10-12T09:08:06;33.35;;;4.40;;
32505;SDS011;18955;51.224;8.482;2022-10-12T09:10:43;23.92;;;4.55;;
32505;SDS011;18955;51.224;8.482;2022-10-12T09:16:16;21.30;;;3.90;;
32505;SDS011;18955;51.224;8.482;2022-10-12T09:18:45;22.70;;;4.35;;
32505;SDS011;18955;51.224;8.482;2022-10-12T09:21:19;19.10;;;3.35;;
32505;SDS011;18955;51.224;8.482;2022-10-12T09:23:46;20.02;;;3.70;;
32505;SDS011;18955;51.224;8.482;2022-10-12T09:28:56;18.95;;;3.67;;
32505;SDS011;18955;51.224;8.482;2022-10-12T09:31:37;13.90;;;3.25;;
32505;SDS011;18955;51.224;8.482;2022-10-12T09:34:16;18.83;;;3.65;;
32505;SDS011;18955;51.224;8.482;2022-10-12T09:36:42;20.30;;;3.63;;
32505;SDS011;18955;51.224;8.482;2022-10-12T09:39:14;15.00;;;4.47;;
32505;SDS011;18955;51.224;8.482;2022-10-12T09:41:44;14.93;;;3.55;;
32505;SDS011;18955;51.224;8.482;2022-10-12T09:47:05;13.40;;;4.65;;
32505;SDS011;18955;51.224;8.482;2022-10-12T09:49:56;7.78;;;4.03;;
32505;SDS011;18955;51.224;8.482;2022-10-12T09:52:28;9.50;;;3.65;;
32505;SDS011;18955;51.224;8.482;2022-10-12T09:57:51;20.02;;;5.70;;
32505;SDS011;18955;51.224;8.482;2022-10-12T10:02:48;18.45;;;5.32;;
32505;SDS011;18955;51.224;8.482;2022-10-12T10:05:25;18.77;;;5.00;;
32505;SDS011;18955;51.224;8.482;2022-10-12T10:07:52;12.40;;;5.38;;
32505;SDS011;18955;51.224;8.482;2022-10-12T10:10:36;11.50;;;4.43;;
32505;SDS011;18955;51.224;8.482;2022-10-12T10:13:17;14.75;;;5.22;;
32505;SDS011;18955;51.224;8.482;2022-10-12T10:15:45;13.63;;;4.93;;
32505;SDS011;18955;51.224;8.482;2022-10-12T10:18:32;16.75;;;5.10;;
32505;SDS011;18955;51.224;8.482;2022-10-12T10:21:13;16.63;;;5.38;;
32505;SDS011;18955;51.224;8.482;2022-10-12T10:23:58;20.60;;;5.68;;
32505;SDS011;18955;51.224;8.482;2022-10-12T10:26:58;12.68;;;5.25;;
32505;SDS011;18955;51.224;8.482;2022-10-12T10:29:31;15.63;;;4.55;;
32505;SDS011;18955;51.224;8.482;2022-10-12T10:32:15;19.67;;;6.40;;
32505;SDS011;18955;51.224;8.482;2022-10-12T10:35:02;14.48;;;5.13;;
32505;SDS011;18955;51.224;8.482;2022-10-12T10:42:48;14.15;;;5.07;;
32505;SDS011;18955;51.224;8.482;2022-10-12T10:45:24;12.73;;;4.50;;
32505;SDS011;18955;51.224;8.482;2022-10-12T10:48:07;10.45;;;4.32;;
32505;SDS011;18955;51.224;8.482;2022-10-12T10:50:40;16.25;;;4.97;;
32505;SDS011;18955;51.224;8.482;2022-10-12T10:53:26;19.83;;;4.53;;
32505;SDS011;18955;51.224;8.482;2022-10-12T10:58:56;10.90;;;4.95;;
32505;SDS011;18955;51.224;8.482;2022-10-12T11:01:31;15.45;;;5.40;;
32505;SDS011;18955;51.224;8.482;2022-10-12T11:04:03;19.65;;;5.85;;
32505;SDS011;18955;51.224;8.482;2022-10-12T11:06:41;14.30;;;4.90;;
32505;SDS011;18955;51.224;8.482;2022-10-12T11:11:58;10.10;;;4.68;;
32505;SDS011;18955;51.224;8.482;2022-10-12T11:14:36;13.55;;;4.70;;
32505;SDS011;18955;51.224;8.482;2022-10-12T11:17:10;17.38;;;6.32;;
32505;SDS011;18955;51.224;8.482;2022-10-12T11:19:47;12.82;;;6.03;;
32505;SDS011;18955;51.224;8.482;2022-10-12T11:22:21;12.50;;;6.25;;
32505;SDS011;18955;51.224;8.482;2022-10-12T11:27:43;9.05;;;4.63;;
32505;SDS011;18955;51.224;8.482;2022-10-12T11:30:17;10.65;;;5.10;;
32505;SDS011;18955;51.224;8.482;2022-10-12T11:32:47;11.73;;;4.70;;
32505;SDS011;18955;51.224;8.482;2022-10-12T11:35:24;20.25;;;4.93;;
32505;SDS011;18955;51.224;8.482;2022-10-12T11:37:54;14.35;;;4.53;;
32505;SDS011;18955;51.224;8.482;2022-10-12T11:40:33;11.07;;;5.03;;
32505;SDS011;18955;51.224;8.482;2022-10-12T11:43:05;15.15;;;4.90;;
32505;SDS011;18955;51.224;8.482;2022-10-12T11:45:42;20.00;;;4.25;;
32505;SDS011;18955;51.224;8.482;2022-10-12T11:48:59;12.70;;;5.05;;
32505;SDS011;18955;51.224;8.482;2022-10-12T11:51:01;13.65;;;5.10;;
32505;SDS011;18955;51.224;8.482;2022-10-12T11:56:09;17.30;;;6.10;;
32505;SDS011;18955;51.224;8.482;2022-10-12T11:58:46;17.42;;;5.97;;
32505;SDS011;18955;51.224;8.482;2022-10-12T12:09:29;14.70;;;4.85;;
32505;SDS011;18955;51.224;8.482;2022-10-12T12:19:45;10.70;;;4.55;;
32505;SDS011;18955;51.224;8.482;2022-10-12T12:22:27;12.80;;;5.55;;
32505;SDS011;18955;51.224;8.482;2022-10-12T12:25:32;12.82;;;5.93;;
32505;SDS011;18955;51.224;8.482;2022-10-12T12:28:04;15.32;;;5.13;;
32505;SDS011;18955;51.224;8.482;2022-10-12T12:30:42;12.55;;;5.80;;
32505;SDS011;18955;51.224;8.482;2022-10-12T12:33:41;12.95;;;5.15;;
32505;SDS011;18955;51.224;8.482;2022-10-12T12:36:31;18.90;;;5.53;;
32505;SDS011;18955;51.224;8.482;2022-10-12T12:52:04;11.98;;;4.95;;
32505;SDS011;18955;51.224;8.482;2022-10-12T12:54:41;16.95;;;6.72;;
32505;SDS011;18955;51.224;8.482;2022-10-12T13:03:11;16.15;;;6.40;;
32505;SDS011;18955;51.224;8.482;2022-10-12T13:17:18;15.77;;;6.15;;
32505;SDS011;18955;51.224;8.482;2022-10-12T13:19:46;11.45;;;5.80;;
32505;SDS011;18955;51.224;8.482;2022-10-12T13:22:14;12.43;;;5.53;;
32505;SDS011;18955;51.224;8.482;2022-10-12T13:24:46;15.82;;;5.70;;
32505;SDS011;18955;51.224;8.482;2022-10-12T13:27:20;11.13;;;4.15;;
32505;SDS011;18955;51.224;8.482;2022-10-12T13:30:19;13.93;;;4.32;;
32505;SDS011;18955;51.224;8.482;2022-10-12T13:32:49;13.07;;;5.93;;
32505;SDS011;18955;51.224;8.482;2022-10-12T13:35:45;12.55;;;4.88;;
32505;SDS011;18955;51.224;8.482;2022-10-12T13:38:37;13.43;;;4.88;;
32505;SDS011;18955;51.224;8.482;2022-10-12T13:41:14;8.77;;;4.63;;
32505;SDS011;18955;51.224;8.482;2022-10-12T13:43:44;9.93;;;4.43;;
32505;SDS011;18955;51.224;8.482;2022-10-12T13:46:36;16.77;;;5.35;;
32505;SDS011;18955;51.224;8.482;2022-10-12T13:51:44;15.23;;;5.20;;
32505;SDS011;18955;51.224;8.482;2022-10-12T13:54:17;12.25;;;4.57;;
32505;SDS011;18955;51.224;8.482;2022-10-12T13:56:47;16.67;;;5.32;;
32505;SDS011;18955;51.224;8.482;2022-10-12T13:59:17;20.42;;;6.28;;
32505;SDS011;18955;51.224;8.482;2022-10-12T14:01:57;17.58;;;6.60;;
32505;SDS011;18955;51.224;8.482;2022-10-12T14:04:26;18.58;;;6.93;;
32505;SDS011;18955;51.224;8.482;2022-10-12T14:06:58;21.05;;;7.18;;
32505;SDS011;18955;51.224;8.482;2022-10-12T14:09:38;15.27;;;7.15;;
32505;SDS011;18955;51.224;8.482;2022-10-12T14:12:07;16.13;;;7.28;;
32505;SDS011;18955;51.224;8.482;2022-10-12T14:14:36;14.10;;;6.90;;
32505;SDS011;18955;51.224;8.482;2022-10-12T14:17:04;12.13;;;5.75;;
32505;SDS011;18955;51.224;8.482;2022-10-12T14:22:18;14.55;;;6.28;;
32505;SDS011;18955;51.224;8.482;2022-10-12T14:24:47;14.68;;;4.65;;
32505;SDS011;18955;51.224;8.482;2022-10-12T14:27:24;15.18;;;5.43;;
32505;SDS011;18955;51.224;8.482;2022-10-12T14:29:55;17.05;;;5.15;;
32505;SDS011;18955;51.224;8.482;2022-10-12T14:32:39;13.88;;;5.00;;
32505;SDS011;18955;51.224;8.482;2022-10-12T14:35:23;15.80;;;4.10;;
32505;SDS011;18955;51.224;8.482;2022-10-12T14:37:52;13.38;;;4.70;;
32505;SDS011;18955;51.224;8.482;2022-10-12T14:40:30;15.52;;;4.75;;
32505;SDS011;18955;51.224;8.482;2022-10-12T14:43:04;14.73;;;4.30;;
32505;SDS011;18955;51.224;8.482;2022-10-12T14:45:51;9.20;;;4.03;;
32505;SDS011;18955;51.224;8.482;2022-10-12T14:48:18;19.73;;;4.18;;
32505;SDS011;18955;51.224;8.482;2022-10-12T14:50:47;10.10;;;3.60;;
32505;SDS011;18955;51.224;8.482;2022-10-12T14:53:14;10.68;;;3.80;;
32505;SDS011;18955;51.224;8.482;2022-10-12T14:55:41;11.75;;;4.13;;
32505;SDS011;18955;51.224;8.482;2022-10-12T14:58:10;10.30;;;3.75;;
32505;SDS011;18955;51.224;8.482;2022-10-12T15:00:40;13.32;;;4.13;;
32505;SDS011;18955;51.224;8.482;2022-10-12T15:03:06;7.90;;;3.70;;
32505;SDS011;18955;51.224;8.482;2022-10-12T15:05:32;6.60;;;2.83;;
32505;SDS011;18955;51.224;8.482;2022-10-12T15:07:59;13.23;;;4.13;;
32505;SDS011;18955;51.224;8.482;2022-10-12T15:10:28;16.60;;;3.45;;
32505;SDS011;18955;51.224;8.482;2022-10-12T15:12:55;10.38;;;3.80;;
32505;SDS011;18955;51.224;8.482;2022-10-12T15:15:40;9.88;;;3.75;;
32505;SDS011;18955;51.224;8.482;2022-10-12T15:18:09;9.13;;;3.80;;
32505;SDS011;18955;51.224;8.482;2022-10-12T15:20:35;10.23;;;4.38;;
32505;SDS011;18955;51.224;8.482;2022-10-12T15:23:02;8.85;;;3.85;;
32505;SDS011;18955;51.224;8.482;2022-10-12T15:25:39;9.10;;;3.80;;
32505;SDS011;18955;51.224;8.482;2022-10-12T15:28:13;13.77;;;3.88;;
32505;SDS011;18955;51.224;8.482;2022-10-12T15:30:40;5.47;;;2.75;;
32505;SDS011;18955;51.224;8.482;2022-10-12T15:33:06;7.20;;;3.28;;
32505;SDS011;18955;51.224;8.482;2022-10-12T15:35:34;10.90;;;3.80;;
32505;SDS011;18955;51.224;8.482;2022-10-12T15:38:00;8.80;;;3.42;;
32505;SDS011;18955;51.224;8.482;2022-10-12T15:40:27;7.85;;;2.88;;
32505;SDS011;18955;51.224;8.482;2022-10-12T15:42:55;16.88;;;3.70;;
32505;SDS011;18955;51.224;8.482;2022-10-12T15:45:26;10.85;;;3.35;;
32505;SDS011;18955;51.224;8.482;2022-10-12T15:47:58;12.23;;;4.28;;
32505;SDS011;18955;51.224;8.482;2022-10-12T15:50:25;12.57;;;4.00;;
32505;SDS011;18955;51.224;8.482;2022-10-12T15:52:54;11.73;;;4.00;;
32505;SDS011;18955;51.224;8.482;2022-10-12T15:55:27;7.47;;;3.47;;
32505;SDS011;18955;51.224;8.482;2022-10-12T15:57:55;11.63;;;3.55;;
32505;SDS011;18955;51.224;8.482;2022-10-12T16:00:22;18.73;;;3.50;;
32505;SDS011;18955;51.224;8.482;2022-10-12T16:02:53;11.70;;;3.95;;
32505;SDS011;18955;51.224;8.482;2022-10-12T16:05:22;7.03;;;3.67;;
32505;SDS011;18955;51.224;8.482;2022-10-12T16:07:56;16.30;;;3.58;;
32505;SDS011;18955;51.224;8.482;2022-10-12T16:10:24;10.02;;;4.00;;
32505;SDS011;18955;51.224;8.482;2022-10-12T16:12:53;12.73;;;3.50;;
32505;SDS011;18955;51.224;8.482;2022-10-12T16:15:24;13.70;;;3.90;;
32505;SDS011;18955;51.224;8.482;2022-10-12T16:17:54;12.18;;;3.72;;
32505;SDS011;18955;51.224;8.482;2022-10-12T16:20:20;6.70;;;3.35;;
32505;SDS011;18955;51.224;8.482;2022-10-12T16:22:47;12.52;;;3.28;;
32505;SDS011;18955;51.224;8.482;2022-10-12T16:27:42;15.65;;;3.70;;
32505;SDS011;18955;51.224;8.482;2022-10-12T16:30:09;5.82;;;3.10;;
32505;SDS011;18955;51.224;8.482;2022-10-12T16:32:36;11.35;;;3.22;;
32505;SDS011;18955;51.224;8.482;2022-10-12T16:35:02;7.55;;;3.25;;
32505;SDS011;18955;51.224;8.482;2022-10-12T16:37:30;10.35;;;4.28;;
32505;SDS011;18955;51.224;8.482;2022-10-12T16:39:56;8.07;;;3.15;;
32505;SDS011;18955;51.224;8.482;2022-10-12T16:42:22;8.57;;;3.53;;
32505;SDS011;18955;51.224;8.482;2022-10-12T16:44:48;8.32;;;2.42;;
32505;SDS011;18955;51.224;8.482;2022-10-12T16:47:15;5.25;;;2.53;;
32505;SDS011;18955;51.224;8.482;2022-10-12T16:49:41;11.13;;;3.33;;
32505;SDS011;18955;51.224;8.482;2022-10-12T16:52:07;9.70;;;3.30;;
32505;SDS011;18955;51.224;8.482;2022-10-12T16:54:33;3.97;;;2.55;;
32505;SDS011;18955;51.224;8.482;2022-10-12T16:57:00;10.35;;;3.50;;
32505;SDS011;18955;51.224;8.482;2022-10-12T16:59:26;12.25;;;3.35;;
32505;SDS011;18955;51.224;8.482;2022-10-12T17:01:52;8.35;;;3.20;;
32505;SDS011;18955;51.224;8.482;2022-10-12T17:04:18;14.02;;;3.72;;
32505;SDS011;18955;51.224;8.482;2022-10-12T17:09:12;10.35;;;3.33;;
32505;SDS011;18955;51.224;8.482;2022-10-12T17:11:39;8.98;;;3.20;;
32505;SDS011;18955;51.224;8.482;2022-10-12T17:14:15;11.63;;;3.10;;
32505;SDS011;18955;51.224;8.482;2022-10-12T17:16:42;13.25;;;3.28;;
32505;SDS011;18955;51.224;8.482;2022-10-12T17:19:28;9.00;;;2.97;;